createdAt,value
2022-10-19T00:02:14.823Z,52.63
2022-10-19T00:04:41.113Z,52.88
2022-10-19T00:07:07.434Z,53.01
2022-10-19T00:09:33.782Z,53.10
2022-10-19T00:12:00.131Z,53.13
2022-10-19T00:14:26.479Z,53.29
2022-10-19T00:16:52.792Z,53.33
2022-10-19T00:19:19.172Z,53.34
2022-10-19T00:21:45.527Z,53.41
2022-10-19T00:24:11.821Z,53.50
2022-10-19T00:26:38.145Z,53.54
2022-10-19T00:29:04.565Z,53.65
2022-10-19T00:31:30.808Z,53.87
2022-10-19T00:33:57.135Z,53.94
2022-10-19T00:36:23.454Z,54.02
2022-10-19T00:38:49.796Z,54.14
2022-10-19T00:41:16.110Z,54.27
2022-10-19T00:43:42.489Z,54.34
2022-10-19T00:46:08.823Z,54.47
2022-10-19T00:48:35.144Z,54.53
2022-10-19T00:51:01.464Z,54.69
2022-10-19T00:53:27.789Z,54.77
2022-10-19T00:55:54.162Z,54.67
2022-10-19T00:58:20.498Z,54.65
2022-10-19T01:00:46.855Z,54.67
2022-10-19T01:03:13.143Z,54.85
2022-10-19T01:05:39.480Z,54.94
2022-10-19T01:08:05.823Z,55.04
2022-10-19T01:10:32.177Z,55.14
2022-10-19T01:12:58.520Z,55.15
2022-10-19T01:15:24.867Z,55.25
2022-10-19T01:17:51.211Z,55.47
2022-10-19T01:20:17.527Z,55.25
2022-10-19T01:22:43.873Z,55.26
2022-10-19T01:25:10.202Z,55.44
2022-10-19T01:27:36.778Z,55.54
2022-10-19T01:30:02.933Z,55.49
2022-10-19T01:32:29.307Z,55.57
2022-10-19T01:34:55.618Z,55.70
2022-10-19T01:37:21.937Z,55.80
2022-10-19T01:39:49.883Z,55.91
2022-10-19T01:42:14.620Z,56.03
2022-10-19T01:44:40.975Z,56.13
2022-10-19T01:47:07.339Z,56.12
2022-10-19T01:49:33.655Z,56.21
2022-10-19T01:51:59.989Z,55.98
2022-10-19T01:54:26.310Z,55.95
2022-10-19T01:56:52.705Z,56.09
2022-10-19T01:59:19.021Z,56.16
2022-10-19T02:01:45.345Z,56.22
2022-10-19T02:04:11.667Z,55.89
2022-10-19T02:06:38.007Z,55.76
2022-10-19T02:09:04.328Z,55.86
2022-10-19T02:11:30.660Z,55.65
2022-10-19T02:13:56.987Z,55.43
2022-10-19T02:16:23.312Z,55.50
2022-10-19T02:18:49.652Z,55.68
2022-10-19T02:21:15.996Z,55.92
2022-10-19T02:23:42.306Z,56.12
2022-10-19T02:26:08.670Z,56.37
2022-10-19T02:28:34.991Z,56.59
2022-10-19T02:31:01.325Z,56.71
2022-10-19T02:33:27.638Z,56.84
2022-10-19T02:35:53.984Z,56.92
2022-10-19T02:38:20.321Z,56.92
2022-10-19T02:40:46.663Z,56.89
2022-10-19T02:43:13.008Z,56.82
2022-10-19T02:45:39.346Z,56.78
2022-10-19T02:48:05.678Z,56.86
2022-10-19T02:50:32.020Z,56.86
2022-10-19T02:52:58.329Z,56.86
2022-10-19T02:55:24.670Z,56.94
2022-10-19T02:57:51.044Z,57.02
2022-10-19T03:00:17.369Z,56.92
2022-10-19T03:02:43.682Z,56.85
2022-10-19T03:05:10.045Z,56.79
2022-10-19T03:07:36.610Z,56.73
2022-10-19T03:10:02.676Z,56.78
2022-10-19T03:12:29.027Z,56.76
2022-10-19T03:14:55.355Z,56.83
2022-10-19T03:17:21.668Z,56.89
2022-10-19T03:19:48.042Z,57.02
2022-10-19T03:22:14.375Z,57.18
2022-10-19T03:24:40.732Z,57.43
2022-10-19T03:27:07.045Z,57.52
2022-10-19T03:29:33.363Z,57.62
2022-10-19T03:31:59.713Z,57.61
2022-10-19T03:34:26.036Z,57.67
2022-10-19T03:36:52.352Z,57.65
2022-10-19T03:39:18.729Z,57.59
2022-10-19T03:41:45.062Z,57.83
2022-10-19T03:44:11.397Z,57.86
2022-10-19T03:46:37.731Z,57.77
2022-10-19T03:49:04.071Z,57.76
2022-10-19T03:51:30.400Z,57.76
2022-10-19T03:53:56.718Z,57.84
2022-10-19T03:56:23.052Z,57.89
2022-10-19T03:58:49.390Z,57.98
2022-10-19T04:01:15.825Z,58.07
2022-10-19T04:03:42.081Z,58.11
2022-10-19T04:06:08.388Z,58.16
2022-10-19T04:08:34.731Z,58.18
2022-10-19T04:11:01.061Z,58.18
2022-10-19T04:13:27.384Z,58.22
2022-10-19T04:15:53.714Z,58.32
2022-10-19T04:18:20.072Z,58.24
2022-10-19T04:20:46.381Z,58.43
2022-10-19T04:23:12.772Z,58.42
2022-10-19T04:25:39.034Z,58.52
2022-10-19T04:28:05.352Z,58.49
2022-10-19T04:30:31.687Z,58.33
2022-10-19T04:32:58.044Z,58.32
2022-10-19T04:35:24.392Z,58.29
2022-10-19T04:37:50.733Z,58.48
2022-10-19T04:40:17.063Z,58.46
2022-10-19T04:42:43.405Z,58.41
2022-10-19T04:45:09.719Z,69.02
2022-10-19T04:47:36.448Z,75.51
2022-10-19T04:50:02.355Z,79.91
2022-10-19T04:52:28.731Z,82.01
2022-10-19T04:54:55.060Z,83.18
2022-10-19T04:57:21.397Z,84.57
2022-10-19T04:59:47.708Z,84.74
2022-10-19T05:02:14.028Z,73.05
2022-10-19T05:04:43.024Z,65.65
2022-10-19T05:07:06.697Z,63.18
2022-10-19T05:09:33.037Z,61.86
2022-10-19T05:11:59.353Z,61.13
2022-10-19T05:14:25.692Z,60.50
2022-10-19T05:16:52.006Z,60.13
2022-10-19T05:19:18.324Z,59.30
2022-10-19T05:21:44.650Z,58.92
2022-10-19T05:24:10.991Z,58.29
2022-10-19T05:26:37.372Z,58.14
2022-10-19T05:29:03.738Z,57.66
2022-10-19T05:31:30.055Z,56.92
2022-10-19T05:33:56.568Z,56.33
2022-10-19T05:36:22.724Z,56.00
2022-10-19T05:38:49.063Z,55.69
2022-10-19T05:41:15.498Z,55.16
2022-10-19T05:43:41.817Z,54.77
2022-10-19T05:46:08.168Z,54.33
2022-10-19T05:48:34.517Z,53.93
2022-10-19T05:51:00.937Z,53.62
2022-10-19T05:53:27.371Z,53.26
2022-10-19T05:55:53.636Z,52.67
2022-10-19T05:58:20.039Z,52.44
2022-10-19T06:00:46.381Z,52.06
2022-10-19T06:03:12.755Z,51.78
2022-10-19T06:05:39.094Z,51.59
2022-10-19T06:08:05.413Z,51.12
2022-10-19T06:10:31.756Z,50.75
2022-10-19T06:12:58.077Z,50.21
2022-10-19T06:15:24.421Z,49.26
2022-10-19T06:17:50.774Z,49.13
2022-10-19T06:20:17.102Z,48.73
2022-10-19T06:22:43.426Z,48.40
2022-10-19T06:25:09.805Z,47.89
2022-10-19T06:27:36.591Z,47.27
2022-10-19T06:30:02.441Z,47.06
2022-10-19T06:32:28.758Z,46.58
2022-10-19T06:34:56.530Z,46.26
2022-10-19T06:37:21.403Z,45.65
2022-10-19T06:39:47.789Z,45.43
2022-10-19T06:42:14.090Z,45.41
2022-10-19T06:44:40.430Z,45.05
2022-10-19T06:47:06.745Z,44.52
2022-10-19T06:49:33.089Z,43.59
2022-10-19T06:51:59.407Z,43.29
2022-10-19T06:54:25.730Z,43.18
2022-10-19T06:56:52.071Z,42.78
2022-10-19T06:59:18.445Z,42.41
2022-10-19T07:01:44.759Z,42.29
2022-10-19T07:04:11.077Z,41.87
2022-10-19T07:06:37.412Z,42.13
2022-10-19T07:09:03.793Z,41.53
2022-10-19T07:11:30.108Z,41.07
2022-10-19T07:13:56.439Z,40.82
2022-10-19T07:16:22.773Z,40.92
2022-10-19T07:18:49.116Z,40.15
2022-10-19T07:21:15.486Z,39.38
2022-10-19T07:23:41.806Z,39.33
2022-10-19T07:26:08.146Z,39.62
2022-10-19T07:28:34.467Z,39.49
2022-10-19T07:31:00.813Z,38.74
2022-10-19T07:33:27.172Z,38.48
2022-10-19T07:35:53.493Z,38.32
2022-10-19T07:38:19.841Z,38.37
2022-10-19T07:40:47.457Z,38.24
2022-10-19T07:43:12.489Z,37.35
2022-10-19T07:45:38.836Z,36.82
2022-10-19T07:48:05.175Z,36.64
2022-10-19T07:50:31.517Z,37.10
2022-10-19T07:52:57.841Z,36.35
2022-10-19T07:55:24.168Z,36.68
2022-10-19T07:57:50.523Z,36.36
2022-10-19T08:00:16.844Z,36.40
2022-10-19T08:02:57.699Z,36.36
2022-10-19T08:05:11.740Z,35.82
2022-10-19T08:07:35.897Z,35.26
2022-10-19T08:10:02.283Z,34.45
2022-10-19T08:12:28.618Z,34.51
2022-10-19T08:14:54.943Z,34.58
2022-10-19T08:17:21.338Z,34.08
2022-10-19T08:19:47.656Z,34.27
2022-10-19T08:22:13.977Z,34.09
2022-10-19T08:24:40.325Z,33.51
2022-10-19T08:27:06.644Z,33.21
2022-10-19T08:29:33.003Z,33.14
2022-10-19T08:31:59.358Z,32.98
2022-10-19T08:34:25.699Z,32.68
2022-10-19T08:36:52.016Z,32.49
2022-10-19T08:39:18.358Z,32.08
2022-10-19T08:41:44.719Z,32.22
2022-10-19T08:44:11.005Z,31.83
2022-10-19T08:46:37.353Z,31.71
2022-10-19T08:49:03.692Z,31.24
2022-10-19T08:51:30.036Z,30.99
2022-10-19T08:53:56.414Z,31.07
2022-10-19T08:56:45.680Z,31.04
2022-10-19T08:58:49.086Z,30.73
2022-10-19T09:01:15.460Z,30.15
2022-10-19T09:03:54.960Z,29.84
2022-10-19T09:06:08.200Z,29.79
2022-10-19T09:08:34.638Z,29.64
2022-10-19T09:11:00.905Z,29.33
2022-10-19T09:13:36.396Z,29.12
2022-10-19T09:15:53.560Z,28.98
2022-10-19T09:18:19.908Z,28.73
2022-10-19T09:20:46.247Z,28.44
2022-10-19T09:23:13.586Z,28.27
2022-10-19T09:25:38.917Z,28.22
2022-10-19T09:28:05.328Z,28.16
2022-10-19T09:30:31.657Z,27.99
2022-10-19T09:32:58.013Z,27.70
2022-10-19T09:35:24.343Z,27.29
2022-10-19T09:37:50.673Z,27.55
2022-10-19T09:40:17.014Z,27.16
2022-10-19T09:42:43.359Z,26.93
2022-10-19T09:45:09.699Z,27.11
2022-10-19T09:47:36.564Z,26.84
2022-10-19T09:50:02.343Z,26.74
2022-10-19T09:52:28.673Z,26.64
2022-10-19T09:54:55.039Z,26.74
2022-10-19T09:57:21.350Z,26.79
2022-10-19T09:59:47.691Z,26.54
2022-10-19T10:02:14.011Z,26.45
2022-10-19T10:04:40.329Z,26.28
2022-10-19T10:07:06.682Z,25.87
2022-10-19T10:09:32.995Z,25.87
2022-10-19T10:11:59.352Z,25.82
2022-10-19T10:14:25.720Z,25.68
2022-10-19T10:16:52.043Z,25.64
2022-10-19T10:19:18.370Z,25.51
2022-10-19T10:21:44.715Z,25.46
2022-10-19T10:24:11.063Z,25.18
2022-10-19T10:26:37.388Z,25.11
2022-10-19T10:29:03.724Z,24.85
2022-10-19T10:31:30.070Z,24.75
2022-10-19T10:33:56.411Z,24.28
2022-10-19T10:36:22.735Z,24.32
2022-10-19T10:38:49.115Z,24.51
2022-10-19T10:41:15.438Z,24.34
2022-10-19T10:43:41.830Z,24.22
2022-10-19T10:46:08.125Z,24.14
2022-10-19T10:48:34.460Z,23.94
2022-10-19T10:51:00.808Z,24.02
2022-10-19T10:53:27.115Z,24.03
2022-10-19T10:55:53.464Z,24.05
2022-10-19T10:58:19.840Z,24.00
2022-10-19T11:00:46.188Z,24.03
2022-10-19T11:03:12.532Z,23.91
2022-10-19T11:05:38.880Z,23.62
2022-10-19T11:08:05.217Z,23.61
2022-10-19T11:10:31.581Z,23.58
2022-10-19T11:12:57.894Z,23.45
2022-10-19T11:15:24.299Z,23.31
2022-10-19T11:17:50.572Z,23.32
2022-10-19T11:20:16.920Z,23.21
2022-10-19T11:22:43.252Z,23.02
2022-10-19T11:25:09.696Z,23.06
2022-10-19T11:27:36.377Z,23.09
2022-10-19T11:30:02.355Z,22.89
2022-10-19T11:32:28.693Z,23.01
2022-10-19T11:34:55.053Z,22.62
2022-10-19T11:37:21.386Z,22.58
2022-10-19T11:39:47.704Z,22.63
2022-10-19T11:42:14.053Z,22.62
2022-10-19T11:44:40.400Z,22.61
2022-10-19T11:47:06.718Z,22.60
2022-10-19T11:49:33.065Z,22.64
2022-10-19T11:51:59.393Z,22.49
2022-10-19T11:54:25.711Z,22.63
2022-10-19T11:57:03.296Z,22.36
2022-10-19T11:59:18.369Z,22.64
2022-10-19T12:01:44.807Z,22.66
2022-10-19T12:04:11.087Z,22.19
2022-10-19T12:06:37.428Z,22.29
2022-10-19T12:09:03.788Z,22.33
2022-10-19T12:11:30.075Z,22.48
2022-10-19T12:13:56.458Z,22.63
2022-10-19T12:16:22.783Z,22.71
2022-10-19T12:18:49.121Z,22.54
2022-10-19T12:21:15.449Z,22.61
2022-10-19T12:23:41.793Z,22.94
2022-10-19T12:26:08.173Z,22.90
2022-10-19T12:28:34.492Z,22.89
2022-10-19T12:31:00.797Z,22.60
2022-10-19T12:33:27.140Z,22.74
2022-10-19T12:35:53.474Z,22.56
2022-10-19T12:38:19.794Z,22.84
2022-10-19T12:40:46.133Z,23.03
2022-10-19T12:43:12.479Z,23.11
2022-10-19T12:45:38.793Z,23.09
2022-10-19T12:48:05.141Z,23.15
2022-10-19T12:50:32.921Z,23.51
2022-10-19T12:52:57.849Z,23.79
2022-10-19T12:55:24.165Z,23.81
2022-10-19T12:57:50.538Z,24.06
2022-10-19T13:00:16.875Z,24.11
2022-10-19T13:02:43.259Z,24.28
2022-10-19T13:05:09.570Z,24.70
2022-10-19T13:07:36.290Z,24.72
2022-10-19T13:10:02.256Z,24.91
2022-10-19T13:12:28.580Z,25.16
2022-10-19T13:14:54.899Z,25.35
2022-10-19T13:17:21.245Z,25.41
2022-10-19T13:19:47.585Z,25.68
2022-10-19T13:22:13.931Z,26.78
2022-10-19T13:27:06.637Z,26.90
2022-10-19T13:31:59.330Z,26.38
2022-10-19T13:34:25.650Z,26.47
2022-10-19T13:36:51.973Z,26.76
2022-10-19T13:39:18.301Z,26.81
2022-10-19T13:41:44.645Z,26.98
2022-10-19T13:44:10.982Z,27.26
2022-10-19T13:46:37.326Z,27.39
2022-10-19T13:49:03.661Z,27.46
2022-10-19T13:51:30.003Z,27.61
2022-10-19T13:53:56.331Z,27.77
2022-10-19T13:56:22.659Z,28.04
2022-10-19T13:58:49.003Z,28.34
2022-10-19T14:01:15.347Z,28.53
2022-10-19T14:03:41.726Z,28.70
2022-10-19T14:06:08.070Z,28.65
2022-10-19T14:08:34.459Z,28.69
2022-10-19T14:11:01.591Z,28.83
2022-10-19T14:13:27.065Z,29.04
2022-10-19T14:15:53.389Z,29.16
2022-10-19T14:18:19.714Z,29.26
2022-10-19T14:20:46.035Z,29.38
2022-10-19T14:23:12.380Z,29.45
2022-10-19T14:25:38.746Z,29.69
2022-10-19T14:28:05.072Z,29.79
2022-10-19T14:30:31.411Z,29.95
2022-10-19T14:33:01.143Z,30.02
2022-10-19T14:35:24.095Z,30.16
2022-10-19T14:37:50.419Z,30.37
2022-10-19T14:40:16.769Z,30.45
2022-10-19T14:42:43.087Z,30.55
2022-10-19T14:45:09.410Z,30.82
2022-10-19T14:47:35.786Z,30.97
2022-10-19T14:50:02.212Z,31.12
2022-10-19T14:54:54.813Z,31.38
2022-10-19T14:57:21.154Z,31.66
2022-10-19T14:59:47.482Z,31.71
2022-10-19T15:02:13.823Z,31.77
2022-10-19T15:04:40.143Z,31.82
2022-10-19T15:07:06.485Z,31.94
2022-10-19T15:09:37.884Z,31.97
2022-10-19T15:11:59.221Z,32.11
2022-10-19T15:14:25.570Z,32.20
2022-10-19T15:16:51.888Z,34.18
2022-10-19T15:19:18.209Z,34.08
2022-10-19T15:21:44.555Z,33.40
2022-10-19T15:24:11.044Z,33.39
2022-10-19T15:26:37.365Z,33.44
2022-10-19T15:29:03.722Z,33.57
2022-10-19T15:31:30.063Z,33.57
2022-10-19T15:33:56.409Z,33.82
2022-10-19T15:36:22.729Z,34.09
2022-10-19T15:38:49.058Z,34.12
2022-10-19T15:41:15.406Z,34.03
2022-10-19T15:43:41.741Z,34.19
2022-10-19T15:46:08.065Z,34.44
2022-10-19T15:48:34.389Z,34.57
2022-10-19T15:51:00.728Z,34.82
2022-10-19T15:53:27.106Z,34.91
2022-10-19T15:55:53.486Z,35.19
2022-10-19T15:58:19.798Z,35.30
2022-10-19T16:00:46.151Z,35.52
2022-10-19T16:03:13.449Z,35.72
2022-10-19T16:05:39.787Z,35.90
2022-10-19T16:08:08.920Z,36.14
2022-10-19T16:10:32.449Z,36.38
2022-10-19T16:13:00.955Z,36.51
2022-10-19T16:15:29.719Z,36.51
2022-10-19T16:17:56.050Z,36.58
2022-10-19T16:20:22.372Z,36.76
2022-10-19T16:22:48.738Z,36.83
2022-10-19T16:25:15.062Z,36.94
2022-10-19T16:27:41.385Z,37.13
2022-10-19T16:30:07.772Z,37.34
2022-10-19T16:32:34.135Z,37.52
2022-10-19T16:35:00.449Z,37.74
2022-10-19T16:37:26.780Z,37.84
2022-10-19T16:39:53.117Z,37.90
2022-10-19T16:42:19.440Z,38.07
2022-10-19T16:44:45.819Z,38.21
2022-10-19T16:47:12.165Z,38.25
2022-10-19T16:49:38.513Z,38.30
2022-10-19T16:52:04.832Z,38.56
2022-10-19T16:54:31.150Z,38.61
2022-10-19T16:56:57.506Z,38.70
2022-10-19T16:59:23.940Z,38.84
2022-10-19T17:01:50.283Z,38.89
2022-10-19T17:04:16.584Z,38.94
2022-10-19T17:06:42.964Z,39.08
2022-10-19T17:11:35.673Z,39.15
2022-10-19T17:14:01.996Z,39.34
2022-10-19T17:16:28.329Z,40.29
2022-10-19T17:18:54.668Z,40.36
2022-10-19T17:21:21.015Z,40.64
2022-10-19T17:23:47.330Z,40.74
2022-10-19T17:26:13.855Z,40.84
2022-10-19T17:28:40.248Z,40.93
2022-10-19T17:31:06.582Z,41.00
2022-10-19T17:33:32.931Z,41.18
2022-10-19T17:35:59.305Z,41.26
2022-10-19T17:38:25.629Z,41.22
2022-10-19T17:40:51.973Z,41.56
2022-10-19T17:43:18.292Z,41.89
2022-10-19T17:45:44.627Z,43.24
2022-10-19T17:48:10.977Z,43.18
2022-10-19T17:50:37.297Z,42.84
2022-10-19T17:53:03.624Z,42.75
2022-10-19T17:55:29.969Z,42.79
2022-10-19T17:57:56.306Z,42.85
2022-10-19T18:00:22.643Z,42.91
2022-10-19T18:02:49.057Z,42.90
2022-10-19T18:05:15.324Z,45.11
2022-10-19T18:07:41.666Z,44.79
2022-10-19T18:10:07.991Z,44.65
2022-10-19T18:12:34.324Z,46.37
2022-10-19T18:15:00.638Z,46.09
2022-10-19T18:17:27.875Z,46.06
2022-10-19T18:19:53.281Z,46.89
2022-10-19T18:22:19.608Z,47.76
2022-10-19T18:24:45.947Z,47.60
2022-10-19T18:27:12.268Z,47.67
2022-10-19T18:29:38.608Z,47.70
2022-10-19T18:34:31.346Z,47.94
2022-10-19T18:36:57.647Z,47.85
2022-10-19T18:39:23.996Z,47.91
2022-10-19T18:41:50.311Z,47.95
2022-10-19T18:44:16.640Z,48.35
2022-10-19T18:46:42.991Z,48.06
2022-10-19T18:49:09.316Z,48.05
2022-10-19T18:51:35.651Z,48.22
2022-10-19T18:54:01.999Z,48.26
2022-10-19T18:56:28.342Z,48.36
2022-10-19T18:58:54.664Z,52.34
2022-10-19T19:01:21.067Z,52.68
2022-10-19T19:03:47.379Z,52.71
2022-10-19T19:06:13.712Z,57.24
2022-10-19T19:08:40.178Z,57.38
2022-10-19T19:11:06.427Z,57.71
2022-10-19T19:13:32.781Z,57.45
2022-10-19T19:15:59.143Z,57.59
2022-10-19T19:18:25.488Z,57.67
2022-10-19T19:20:52.182Z,57.59
2022-10-19T19:23:18.560Z,57.58
2022-10-19T19:25:44.899Z,57.75
2022-10-19T19:28:11.232Z,57.20
2022-10-19T19:30:37.557Z,57.63
2022-10-19T19:33:03.877Z,57.33
2022-10-19T19:35:30.213Z,57.16
2022-10-19T19:37:56.559Z,57.53
2022-10-19T19:40:22.907Z,57.27
2022-10-19T19:42:49.244Z,57.39
2022-10-19T19:45:15.579Z,57.41
2022-10-19T19:47:41.924Z,57.12
2022-10-19T19:50:08.272Z,57.23
2022-10-19T19:52:39.420Z,56.86
2022-10-19T19:57:27.293Z,56.80
2022-10-19T19:59:53.642Z,56.96
2022-10-19T20:02:20.028Z,57.03
2022-10-19T20:04:46.355Z,56.94
2022-10-19T20:07:12.701Z,57.20
2022-10-19T20:09:39.057Z,57.07
2022-10-19T20:12:05.396Z,56.72
2022-10-19T20:14:31.746Z,56.91
2022-10-19T20:16:58.093Z,56.89
2022-10-19T20:19:24.433Z,56.97
2022-10-19T20:21:50.793Z,56.90
2022-10-19T20:24:17.134Z,57.15
2022-10-19T20:26:43.452Z,56.84
2022-10-19T20:29:09.805Z,57.29
2022-10-19T20:31:36.149Z,57.89
2022-10-19T20:34:02.462Z,57.44
2022-10-19T20:36:28.803Z,57.63
2022-10-19T20:38:55.141Z,57.21
2022-10-19T20:41:21.462Z,57.37
2022-10-19T20:43:47.797Z,57.43
2022-10-19T20:46:14.128Z,57.71
2022-10-19T20:48:40.479Z,57.33
2022-10-19T20:51:06.812Z,57.63
2022-10-19T20:53:33.172Z,57.44
2022-10-19T20:55:59.520Z,57.73
2022-10-19T20:58:25.871Z,57.91
2022-10-19T21:00:52.241Z,57.57
2022-10-19T21:03:18.582Z,57.52
2022-10-19T21:05:44.911Z,57.74
2022-10-19T21:08:11.252Z,57.81
2022-10-19T21:10:37.592Z,57.73
2022-10-19T21:13:03.923Z,57.92
2022-10-19T21:15:30.269Z,58.08
2022-10-19T21:17:56.657Z,58.34
2022-10-19T21:20:22.986Z,58.01
2022-10-19T21:22:49.335Z,58.24
2022-10-19T21:25:15.680Z,58.33
2022-10-19T21:27:42.003Z,58.43
2022-10-19T21:30:08.328Z,58.32
2022-10-19T21:32:34.687Z,58.13
2022-10-19T21:35:01.025Z,58.30
2022-10-19T21:37:27.386Z,58.46
2022-10-19T21:39:53.725Z,58.46
2022-10-19T21:42:20.088Z,58.38
2022-10-19T21:44:46.409Z,58.58
2022-10-19T21:47:12.756Z,58.25
2022-10-19T21:49:39.136Z,58.67
2022-10-19T21:52:05.470Z,58.36
2022-10-19T21:54:31.818Z,58.56
2022-10-19T21:56:58.166Z,58.44
2022-10-19T21:59:24.509Z,58.49
2022-10-19T22:01:50.885Z,58.65
2022-10-19T22:04:17.207Z,58.73
2022-10-19T22:06:43.550Z,58.77
2022-10-19T22:09:09.909Z,58.65
2022-10-19T22:11:36.209Z,58.84
2022-10-19T22:14:02.585Z,58.89
2022-10-19T22:16:28.929Z,58.93
2022-10-19T22:18:55.246Z,59.11
2022-10-19T22:21:21.613Z,59.00
2022-10-19T22:23:47.953Z,59.27
2022-10-19T22:26:14.283Z,59.47
2022-10-19T22:28:40.599Z,59.50
2022-10-19T22:31:06.927Z,59.38
2022-10-19T22:33:33.305Z,59.73
2022-10-19T22:35:59.641Z,59.83
2022-10-19T22:38:25.953Z,59.80
2022-10-19T22:40:52.291Z,59.98
2022-10-19T22:43:18.608Z,59.84
2022-10-19T22:45:44.950Z,59.84
2022-10-19T22:48:11.269Z,60.06
2022-10-19T22:50:37.592Z,60.18
2022-10-19T22:53:03.915Z,60.41
2022-10-19T22:55:30.259Z,60.39
2022-10-19T22:57:56.594Z,60.69
2022-10-19T23:00:22.942Z,60.85
2022-10-19T23:02:49.280Z,60.70
2022-10-19T23:05:15.660Z,60.89
2022-10-19T23:07:41.996Z,61.03
2022-10-19T23:10:08.316Z,61.09
2022-10-19T23:12:34.644Z,61.14
2022-10-19T23:15:01.025Z,61.33
2022-10-19T23:17:27.359Z,61.51
2022-10-19T23:19:53.702Z,61.52
2022-10-19T23:22:20.080Z,61.63
2022-10-19T23:24:46.399Z,61.79
2022-10-19T23:27:12.741Z,61.90
2022-10-19T23:29:39.116Z,62.05
2022-10-19T23:32:05.457Z,62.05
2022-10-19T23:34:31.836Z,62.16
2022-10-19T23:36:58.153Z,62.26
2022-10-19T23:39:24.519Z,62.42
2022-10-19T23:41:50.815Z,62.50
2022-10-19T23:44:17.167Z,62.69
2022-10-19T23:46:43.503Z,62.72
2022-10-19T23:49:19.030Z,62.73
2022-10-19T23:51:45.344Z,63.01
2022-10-19T23:54:11.723Z,63.04
2022-10-19T23:56:38.041Z,63.12
2022-10-19T23:59:04.379Z,63.42
